Time;durP1;ratioP1;P1;durP2;ratioP2;P2;SDS_P1;SDS_P2;PMS_P1;PMS_P2;Temp;Humidity;BMP_temperature;BMP_pressure;BME280_temperature;BME280_humidity;BME280_pressure;Samples;Min_cycle;Max_cycle;Signal;HPM_P1;HPM_P2
2021/09/17 00:00:52;;;;;;;11.63;6.93;;;;;;;35.91;18.86;94560.00;5056984;28;20053;-56
2021/09/17 00:03:21;;;;;;;7.18;5.65;;;;;;;35.81;18.81;94556.47;5065050;28;20059;-56
2021/09/17 00:05:48;;;;;;;8.63;6.65;;;;;;;35.58;19.05;94540.59;5077073;28;20036;-58
2021/09/17 00:08:15;;;;;;;8.23;6.47;;;;;;;35.49;18.82;94542.06;5076712;28;20048;-57
2021/09/17 00:10:42;;;;;;;9.75;6.65;;;;;;;35.71;18.99;94535.88;5077140;28;20052;-56
2021/09/17 00:13:09;;;;;;;11.38;6.53;;;;;;;35.78;18.84;94541.03;5076190;28;20052;-59
2021/09/17 00:15:36;;;;;;;7.70;6.63;;;;;;;35.82;18.74;94541.66;5075907;28;20045;-60
2021/09/17 00:18:03;;;;;;;8.25;6.05;;;;;;;35.64;18.85;94533.38;5075851;28;20049;-56
2021/09/17 00:20:31;;;;;;;9.68;6.43;;;;;;;35.52;18.62;94543.91;5075505;28;20451;-55
2021/09/17 00:22:58;;;;;;;9.57;5.95;;;;;;;35.74;18.82;94540.41;5076786;28;20045;-58
2021/09/17 00:25:25;;;;;;;9.18;6.20;;;;;;;35.68;18.59;94531.31;5075713;28;20048;-56
2021/09/17 00:27:57;;;;;;;7.28;6.25;;;;;;;35.81;18.22;94526.56;5067350;28;20048;-58
2021/09/17 00:30:28;;;;;;;9.20;6.72;;;;;;;35.54;18.68;94527.16;5056291;28;20474;-57
2021/09/17 00:32:58;;;;;;;9.13;6.32;;;;;;;35.75;18.99;94520.94;5061001;28;20051;-60
2021/09/17 00:35:26;;;;;;;7.95;5.82;;;;;;;35.71;19.30;94519.56;5076397;28;20048;-58
2021/09/17 00:37:53;;;;;;;6.85;6.05;;;;;;;35.61;19.32;94520.69;5075995;28;20359;-63
2021/09/17 00:40:20;;;;;;;6.68;5.60;;;;;;;35.78;18.92;94525.47;5064740;28;20376;-62
2021/09/17 00:42:48;;;;;;;7.00;5.45;;;;;;;35.46;19.67;94521.22;5056322;28;20064;-58
2021/09/17 00:45:15;;;;;;;6.45;5.78;;;;;;;35.43;19.64;94516.66;5056034;28;20041;-57
2021/09/17 00:47:42;;;;;;;9.38;6.25;;;;;;;35.48;19.44;94513.38;5058248;28;20052;-57
2021/09/17 00:50:12;;;;;;;9.43;6.18;;;;;;;35.47;19.66;94516.53;5075378;28;20414;-57
2021/09/17 00:52:40;;;;;;;9.82;6.22;;;;;;;36.53;18.24;94511.78;5069315;28;20444;-59
2021/09/17 00:55:07;;;;;;;7.30;6.45;;;;;;;35.65;19.48;94515.88;5053865;28;20044;-59
2021/09/17 00:57:35;;;;;;;8.88;6.30;;;;;;;35.45;19.23;94508.84;5053703;28;20040;-58
2021/09/17 01:00:05;;;;;;;10.90;6.65;;;;;;;35.48;19.26;94516.09;5054138;28;20044;-60
2021/09/17 01:02:32;;;;;;;8.40;6.47;;;;;;;35.38;19.56;94514.50;5055831;28;20048;-60
2021/09/17 01:05:00;;;;;;;9.40;6.22;;;;;;;35.35;19.75;94520.06;5075348;28;20052;-62
2021/09/17 01:07:27;;;;;;;8.50;6.90;;;;;;;35.39;19.57;94507.88;5072514;28;20044;-60
2021/09/17 01:09:55;;;;;;;9.10;6.38;;;;;;;35.33;19.61;94506.13;5053961;28;20059;-64
2021/09/17 01:12:22;;;;;;;8.60;6.65;;;;;;;35.28;19.74;94493.88;5055098;28;20052;-57
2021/09/17 01:14:50;;;;;;;7.57;6.03;;;;;;;35.22;19.88;94484.78;5054093;28;20203;-59
2021/09/17 01:17:19;;;;;;;6.93;5.93;;;;;;;35.03;20.20;94494.00;5054618;28;20049;-56
2021/09/17 01:19:47;;;;;;;7.57;6.00;;;;;;;35.32;19.67;94494.50;5074498;28;20474;-57
2021/09/17 01:22:14;;;;;;;7.32;5.97;;;;;;;35.00;19.97;94484.78;5074936;28;20489;-58
2021/09/17 01:24:42;;;;;;;7.20;6.38;;;;;;;35.10;19.99;94488.31;5074748;28;20055;-55
2021/09/17 01:27:09;;;;;;;7.40;5.85;;;;;;;34.90;20.42;94478.53;5074407;28;20052;-59
2021/09/17 01:29:36;;;;;;;7.05;6.22;;;;;;;35.17;20.11;94488.09;5074278;28;20041;-57
2021/09/17 01:32:04;;;;;;;7.90;6.32;;;;;;;34.95;20.41;94487.28;5074670;28;20048;-57
2021/09/17 01:34:31;;;;;;;7.15;6.28;;;;;;;34.99;20.14;94487.94;5071898;28;20060;-60
2021/09/17 01:36:58;;;;;;;8.57;6.70;;;;;;;34.83;20.08;94492.28;5055391;28;20428;-57
2021/09/17 01:39:25;;;;;;;11.57;7.25;;;;;;;34.74;20.35;94488.75;5054153;28;20048;-58
2021/09/17 01:41:52;;;;;;;9.35;6.30;;;;;;;34.64;20.53;94490.63;5054203;28;20048;-58
2021/09/17 01:44:20;;;;;;;9.68;6.70;;;;;;;34.74;20.47;94484.06;5054228;28;20049;-60
2021/09/17 01:46:47;;;;;;;10.95;6.80;;;;;;;34.71;20.33;94473.34;5053744;28;20044;-56
2021/09/17 01:49:14;;;;;;;10.52;7.07;;;;;;;34.57;20.80;94469.88;5052280;28;20052;-57
2021/09/17 01:51:41;;;;;;;10.00;6.50;;;;;;;34.63;20.33;94467.41;5053199;28;20045;-57
2021/09/17 01:54:08;;;;;;;10.30;6.65;;;;;;;34.66;20.24;94469.22;5053422;28;20462;-56
2021/09/17 01:56:36;;;;;;;8.35;6.28;;;;;;;34.70;20.36;94460.97;5054306;28;20392;-54
2021/09/17 01:59:03;;;;;;;9.82;6.88;;;;;;;34.82;20.01;94462.88;5054267;28;20063;-58
2021/09/17 02:01:42;;;;;;;8.40;6.88;;;;;;;34.83;20.49;94470.56;5037630;28;20355;-54
2021/09/17 02:04:09;;;;;;;9.35;7.05;;;;;;;34.81;20.18;94466.78;5069512;28;20048;-58
2021/09/17 02:06:36;;;;;;;7.78;6.63;;;;;;;34.70;20.22;94467.16;5073734;28;20470;-56
2021/09/17 02:09:04;;;;;;;9.35;6.85;;;;;;;34.65;20.41;94464.25;5074082;28;20055;-58
2021/09/17 02:11:31;;;;;;;7.15;6.45;;;;;;;34.57;20.50;94459.03;5073303;28;20048;-56
2021/09/17 02:14:01;;;;;;;8.00;6.30;;;;;;;34.55;20.56;94455.25;5074623;28;20052;-55
2021/09/17 02:16:29;;;;;;;8.93;6.22;;;;;;;34.30;20.99;94456.78;5074543;28;20047;-57
2021/09/17 02:18:56;;;;;;;7.40;6.38;;;;;;;34.72;20.07;94459.31;5060609;28;20052;-58
2021/09/17 02:21:24;;;;;;;9.05;6.15;;;;;;;34.44;20.83;94462.97;5054416;28;20049;-61
2021/09/17 02:23:51;;;;;;;12.38;6.22;;;;;;;34.84;20.37;94455.81;5054620;28;20431;-58
2021/09/17 02:26:19;;;;;;;9.20;6.68;;;;;;;34.80;20.61;94455.16;5054469;28;20053;-58
2021/09/17 02:28:47;;;;;;;8.23;6.55;;;;;;;34.58;20.77;94457.84;5053147;28;20495;-58
2021/09/17 02:31:14;;;;;;;10.95;6.40;;;;;;;34.64;20.68;94452.63;5053578;28;20056;-56
2021/09/17 02:33:41;;;;;;;7.72;6.43;;;;;;;34.50;20.88;94453.09;5064411;28;20067;-55
2021/09/17 02:36:08;;;;;;;11.43;6.63;;;;;;;34.54;20.77;94451.75;5073433;28;20055;-55
2021/09/17 02:38:35;;;;;;;7.47;6.43;;;;;;;34.59;20.96;94450.44;5073895;28;20059;-58
2021/09/17 02:41:03;;;;;;;10.57;6.53;;;;;;;34.70;20.68;94450.84;5073622;28;20056;-59
2021/09/17 02:43:30;;;;;;;8.90;6.60;;;;;;;34.75;20.70;94450.28;5073725;28;20074;-58
2021/09/17 02:45:59;;;;;;;9.63;6.53;;;;;;;34.83;20.70;94451.56;5073467;28;20044;-56
2021/09/17 02:48:27;;;;;;;8.13;6.95;;;;;;;34.76;20.46;94443.66;5066178;28;20045;-59
2021/09/17 02:50:55;;;;;;;10.20;6.97;;;;;;;34.76;20.82;94438.25;5054178;28;20056;-54
2021/09/17 02:53:22;;;;;;;11.10;7.18;;;;;;;34.48;20.96;94439.19;5052886;28;20044;-57
2021/09/17 02:55:49;;;;;;;8.15;6.90;;;;;;;34.55;21.02;94442.44;5055462;28;20048;-59
2021/09/17 02:58:16;;;;;;;9.40;6.75;;;;;;;34.56;21.05;94435.03;5056791;28;20079;-57
2021/09/17 03:00:44;;;;;;;9.23;7.10;;;;;;;34.46;21.00;94442.34;5058099;28;20048;-58
2021/09/17 03:03:12;;;;;;;9.00;6.65;;;;;;;34.56;20.87;94443.19;5064246;28;20064;-55
2021/09/17 03:05:39;;;;;;;11.57;6.72;;;;;;;34.62;20.94;94438.75;5060608;28;20040;-57
2021/09/17 03:08:06;;;;;;;10.48;7.25;;;;;;;34.46;21.20;94436.16;5076504;28;20044;-56
2021/09/17 03:10:33;;;;;;;7.68;6.88;;;;;;;34.48;21.01;94436.47;5077742;28;20052;-55
2021/09/17 03:13:00;;;;;;;12.20;7.30;;;;;;;34.80;20.45;94433.44;5077985;28;20439;-56
2021/09/17 03:15:27;;;;;;;10.75;7.13;;;;;;;34.54;20.82;94437.44;5077824;28;20052;-56
2021/09/17 03:17:54;;;;;;;9.32;6.78;;;;;;;34.73;20.26;94438.38;5074469;28;20048;-56
2021/09/17 03:20:22;;;;;;;8.82;6.85;;;;;;;34.53;20.83;94433.22;5057653;28;20053;-60
2021/09/17 03:22:49;;;;;;;8.98;6.80;;;;;;;34.68;20.91;94436.97;5057372;28;20055;-61
2021/09/17 03:25:16;;;;;;;10.82;6.85;;;;;;;34.64;21.03;94439.06;5057280;28;20053;-62
2021/09/17 03:27:43;;;;;;;8.13;6.50;;;;;;;34.69;20.81;94443.16;5056787;28;20052;-57
2021/09/17 03:30:11;;;;;;;9.27;6.70;;;;;;;34.58;21.04;94443.50;5075795;28;20447;-54
2021/09/17 03:32:39;;;;;;;10.50;7.10;;;;;;;34.56;20.75;94435.81;5077355;28;20048;-61
2021/09/17 03:35:07;;;;;;;10.73;6.78;;;;;;;34.61;20.51;94434.47;5076422;28;20052;-58
2021/09/17 03:37:34;;;;;;;8.32;7.43;;;;;;;34.59;20.33;94445.03;5077375;28;20352;-59
2021/09/17 03:40:01;;;;;;;7.45;6.65;;;;;;;34.49;20.58;94440.72;5056748;28;20055;-56
2021/09/17 03:42:29;;;;;;;10.50;6.35;;;;;;;34.69;20.29;94438.50;5057439;28;20108;-56
2021/09/17 03:44:56;;;;;;;9.93;6.70;;;;;;;34.66;20.48;94427.75;5057433;28;20060;-59
2021/09/17 03:47:23;;;;;;;7.72;6.85;;;;;;;34.63;20.22;94432.09;5057296;28;20045;-58
2021/09/17 03:49:50;;;;;;;8.00;6.47;;;;;;;34.60;20.30;94424.81;5076553;28;20048;-58
2021/09/17 03:52:18;;;;;;;6.90;6.20;;;;;;;34.48;20.70;94422.91;5077201;28;20055;-61
2021/09/17 03:54:45;;;;;;;10.55;7.00;;;;;;;34.38;20.61;94427.50;5076603;28;20367;-55
2021/09/17 03:57:12;;;;;;;11.27;7.38;;;;;;;34.59;20.58;94426.03;5076537;28;20059;-58
2021/09/17 03:59:39;;;;;;;7.80;6.70;;;;;;;34.58;20.59;94424.50;5076529;28;20071;-59
2021/09/17 04:02:06;;;;;;;10.32;7.43;;;;;;;34.71;20.33;94427.19;5076556;28;20431;-57
2021/09/17 04:04:33;;;;;;;10.55;7.40;;;;;;;34.63;20.43;94427.44;5075299;28;20071;-58
2021/09/17 04:07:00;;;;;;;13.73;6.95;;;;;;;34.65;20.35;94420.81;5075234;28;20478;-49
2021/09/17 04:09:28;;;;;;;11.80;7.00;;;;;;;34.70;20.37;94417.53;5061129;28;20045;-55
2021/09/17 04:11:55;;;;;;;12.15;7.13;;;;;;;34.84;20.43;94414.34;5040109;28;20048;-58
2021/09/17 04:14:22;;;;;;;9.82;7.82;;;;;;;34.59;20.49;94426.03;5076352;28;20055;-48
2021/09/17 04:16:49;;;;;;;10.70;6.50;;;;;;;34.67;20.65;94427.31;5068634;28;20044;-53
2021/09/17 04:19:16;;;;;;;8.20;6.90;;;;;;;34.57;20.98;94436.56;5071493;28;20477;-53
2021/09/17 04:21:43;;;;;;;9.55;6.57;;;;;;;35.05;20.78;94445.41;5076573;28;20049;-54
2021/09/17 04:24:10;;;;;;;8.13;6.95;;;;;;;35.59;19.66;94447.75;5031313;28;20049;-53
2021/09/17 04:26:37;;;;;;;12.68;6.78;;;;;;;35.40;19.89;94452.34;5074745;28;20044;-45
2021/09/17 04:29:05;;;;;;;10.48;6.57;;;;;;;35.11;20.36;94452.56;5074937;28;20123;-59
2021/09/17 04:31:33;;;;;;;10.52;7.00;;;;;;;35.07;20.51;94453.88;5076577;28;20044;-65
2021/09/17 04:34:00;;;;;;;11.82;6.60;;;;;;;34.90;20.69;94459.50;5058605;28;20056;-70
2021/09/17 04:36:27;;;;;;;9.40;6.90;;;;;;;34.76;21.06;94465.38;5072343;28;20049;-48
2021/09/17 04:38:54;;;;;;;9.57;7.50;;;;;;;35.74;20.00;94450.69;5055195;28;20053;-51
2021/09/17 04:41:21;;;;;;;12.15;8.48;;;;;;;35.19;20.87;94450.34;5056219;28;20049;-65
2021/09/17 04:43:48;;;;;;;13.55;8.77;;;;;;;35.52;20.86;94443.34;5056418;28;20055;-49
2021/09/17 04:46:15;;;;;;;16.70;8.68;;;;;;;35.30;21.00;94439.84;5056221;28;20048;-53
2021/09/17 04:48:42;;;;;;;14.93;9.18;;;;;;;35.29;21.15;94451.16;5069032;28;20052;-51
2021/09/17 04:51:09;;;;;;;14.00;8.35;;;;;;;35.17;20.55;94447.34;5075988;28;20049;-51
2021/09/17 04:53:36;;;;;;;13.57;8.18;;;;;;;34.83;21.20;94448.84;5075757;28;20055;-58
2021/09/17 04:56:03;;;;;;;17.70;7.90;;;;;;;34.74;21.08;94442.59;5074072;28;20048;-64
2021/09/17 04:58:30;;;;;;;15.07;8.15;;;;;;;34.76;21.08;94442.91;5074871;28;20048;-50
2021/09/17 05:00:58;;;;;;;14.75;8.35;;;;;;;34.56;21.59;94440.47;5074995;28;20375;-54
2021/09/17 05:03:25;;;;;;;10.63;7.68;;;;;;;34.63;21.57;94445.69;5073378;28;20387;-51
2021/09/17 05:05:52;;;;;;;10.02;7.43;;;;;;;34.65;21.48;94443.28;5068406;28;20048;-51
2021/09/17 05:08:19;;;;;;;9.73;7.43;;;;;;;34.67;21.54;94438.16;5055762;28;20049;-55
2021/09/17 05:10:46;;;;;;;12.70;7.60;;;;;;;34.39;22.23;94441.84;5055695;28;20052;-60
2021/09/17 05:13:13;;;;;;;10.32;7.38;;;;;;;34.58;22.01;94448.94;5055663;28;20041;-52
2021/09/17 05:15:40;;;;;;;9.45;6.95;;;;;;;34.49;22.39;94443.44;5059208;28;20055;-51
2021/09/17 05:18:07;;;;;;;11.30;7.35;;;;;;;34.66;21.99;94444.81;5073590;28;20040;-63
2021/09/17 05:20:34;;;;;;;14.23;7.90;;;;;;;34.52;21.88;94428.97;5056691;28;20052;-51
2021/09/17 05:23:01;;;;;;;9.40;7.20;;;;;;;34.56;21.89;94429.63;5055612;28;20075;-52
2021/09/17 05:25:28;;;;;;;10.85;7.05;;;;;;;34.32;22.37;94427.25;5055184;28;20460;-50
2021/09/17 05:27:55;;;;;;;9.63;7.22;;;;;;;34.67;21.91;94419.16;5055477;28;20049;-51
2021/09/17 05:30:23;;;;;;;13.90;7.97;;;;;;;34.63;21.68;94422.00;5054949;28;20053;-50
2021/09/17 05:32:50;;;;;;;14.90;7.63;;;;;;;34.54;22.01;94432.78;5058357;28;20455;-50
2021/09/17 05:35:18;;;;;;;20.52;8.32;;;;;;;34.68;21.66;94430.78;5056881;28;20056;-53
2021/09/17 05:37:45;;;;;;;16.25;7.60;;;;;;;34.74;21.44;94429.03;5074158;28;20045;-50
2021/09/17 05:40:12;;;;;;;16.85;7.70;;;;;;;34.81;21.70;94434.94;5074816;28;20055;-51
2021/09/17 05:42:39;;;;;;;14.60;7.82;;;;;;;34.75;21.65;94435.97;5074548;28;20052;-66
2021/09/17 05:45:07;;;;;;;12.23;7.32;;;;;;;34.87;21.24;94433.25;5075070;28;20111;-64
2021/09/17 05:47:34;;;;;;;11.90;7.40;;;;;;;34.66;22.11;94433.19;5074459;28;20044;-66
2021/09/17 05:50:01;;;;;;;11.63;7.60;;;;;;;34.59;21.80;94428.72;5060793;28;20048;-53
2021/09/17 05:52:29;;;;;;;11.30;6.30;;;;;;;34.85;20.86;94424.75;5036407;28;20451;-64
2021/09/17 05:54:56;;;;;;;11.68;7.25;;;;;;;34.87;21.24;94427.03;5054109;28;20055;-54
2021/09/17 05:57:23;;;;;;;12.68;7.38;;;;;;;35.16;21.28;94432.22;5036889;28;20053;-60
2021/09/17 05:59:50;;;;;;;11.32;7.32;;;;;;;35.41;20.92;94432.13;5054862;28;20045;-51
2021/09/17 06:02:17;;;;;;;11.25;7.22;;;;;;;35.52;20.21;94432.47;5055153;28;20044;-53
2021/09/17 06:04:45;;;;;;;11.70;6.97;;;;;;;35.88;19.64;94431.13;5054523;28;20049;-52
2021/09/17 06:07:12;;;;;;;12.35;7.05;;;;;;;35.72;20.37;94428.63;5053353;28;20052;-53
2021/09/17 06:09:39;;;;;;;14.20;7.20;;;;;;;35.78;19.66;94427.59;5054307;28;20041;-52
2021/09/17 06:12:07;;;;;;;10.85;7.25;;;;;;;36.24;19.17;94424.28;5054011;28;20055;-53
2021/09/17 06:14:34;;;;;;;11.18;7.03;;;;;;;36.69;18.64;94423.59;5054877;28;20375;-51
2021/09/17 06:17:01;;;;;;;11.35;7.47;;;;;;;37.33;17.55;94418.91;5053439;28;20045;-55
2021/09/17 06:19:28;;;;;;;10.98;7.40;;;;;;;37.09;17.79;94412.56;5063143;28;20466;-53
2021/09/17 06:21:55;;;;;;;9.15;7.13;;;;;;;37.64;17.36;94417.91;5054583;28;20045;-52
2021/09/17 06:24:22;;;;;;;14.52;7.60;;;;;;;37.73;17.33;94412.44;5054901;28;20494;-53
2021/09/17 06:26:50;;;;;;;14.50;7.32;;;;;;;38.16;17.33;94413.16;5074338;28;20327;-52
2021/09/17 06:29:17;;;;;;;13.10;6.97;;;;;;;38.34;16.95;94410.34;5061810;28;20044;-51
2021/09/17 06:31:44;;;;;;;9.68;7.30;;;;;;;38.42;16.46;94414.22;5073287;28;20052;-51
2021/09/17 06:34:11;;;;;;;11.07;8.07;;;;;;;38.57;16.41;94422.50;5074135;28;20063;-54
2021/09/17 06:36:38;;;;;;;15.60;7.93;;;;;;;38.55;16.44;94431.16;5058976;28;20444;-54
2021/09/17 06:39:05;;;;;;;14.32;7.78;;;;;;;39.04;15.97;94424.41;5053216;28;20048;-53
2021/09/17 06:41:32;;;;;;;12.38;7.47;;;;;;;38.65;16.33;94423.66;5053881;28;20372;-51
2021/09/17 06:43:59;;;;;;;12.35;8.18;;;;;;;38.96;15.48;94426.00;5054296;28;20498;-54
2021/09/17 06:46:27;;;;;;;15.60;11.00;;;;;;;39.30;15.37;94426.59;5053976;28;20044;-55
2021/09/17 06:48:54;;;;;;;14.75;11.27;;;;;;;39.24;15.42;94417.56;5065725;28;20056;-52
2021/09/17 06:51:21;;;;;;;12.18;8.50;;;;;;;39.47;15.38;94419.44;5066725;28;20052;-52
2021/09/17 06:53:48;;;;;;;13.80;8.93;;;;;;;39.45;15.54;94432.84;5054399;28;20053;-53
2021/09/17 06:56:15;;;;;;;12.63;8.23;;;;;;;39.41;15.33;94421.34;5052745;28;20067;-53
2021/09/17 06:58:42;;;;;;;12.65;7.50;;;;;;;39.86;14.91;94422.09;5052922;28;20059;-53
2021/09/17 07:01:09;;;;;;;14.20;7.57;;;;;;;39.99;14.77;94414.34;5053702;28;20083;-56
2021/09/17 07:03:36;;;;;;;10.75;7.22;;;;;;;39.93;14.36;94399.78;5064403;28;20052;-52
2021/09/17 07:06:03;;;;;;;8.88;6.75;;;;;;;40.13;14.26;94397.13;5055388;28;20052;-52
2021/09/17 07:08:30;;;;;;;9.10;6.28;;;;;;;40.31;14.42;94396.84;5073386;28;20052;-52
2021/09/17 07:10:58;;;;;;;11.18;6.70;;;;;;;41.04;13.41;94405.94;5058978;28;20052;-53
2021/09/17 07:13:25;;;;;;;9.70;6.07;;;;;;;41.04;13.48;94396.97;5053529;28;20052;-53
2021/09/17 07:15:52;;;;;;;10.95;6.50;;;;;;;41.10;13.35;94395.78;5053884;28;20045;-53
2021/09/17 07:18:19;;;;;;;10.07;6.00;;;;;;;41.41;13.52;94386.88;5060730;28;20045;-54
2021/09/17 07:20:47;;;;;;;9.30;6.32;;;;;;;41.40;12.92;94388.13;5073617;28;20044;-52
2021/09/17 07:23:15;;;;;;;9.65;6.32;;;;;;;41.72;12.93;94390.88;5068861;28;20056;-53
2021/09/17 07:25:42;;;;;;;13.38;6.57;;;;;;;41.80;12.74;94387.19;5053543;28;20075;-53
2021/09/17 07:28:09;;;;;;;9.25;6.22;;;;;;;42.04;12.81;94383.34;5053888;28;20045;-51
2021/09/17 07:30:37;;;;;;;9.02;6.00;;;;;;;42.05;12.53;94380.09;5053725;28;20498;-53
2021/09/17 07:33:04;;;;;;;9.63;6.10;;;;;;;42.45;12.09;94373.59;5073380;28;20048;-52
2021/09/17 07:35:31;;;;;;;8.68;5.57;;;;;;;42.47;12.39;94379.38;5073873;28;20048;-53
2021/09/17 07:37:59;;;;;;;8.70;6.32;;;;;;;42.69;12.52;94364.97;5053863;28;20059;-53
2021/09/17 07:40:28;;;;;;;10.50;6.55;;;;;;;43.02;12.47;94374.56;5053545;28;20079;-53
2021/09/17 07:42:55;;;;;;;7.80;5.70;;;;;;;43.07;12.00;94362.81;5055150;28;20052;-52
2021/09/17 07:45:24;;;;;;;10.50;5.55;;;;;;;43.44;11.79;94370.09;5057205;28;20048;-52
2021/09/17 07:47:53;;;;;;;6.75;5.03;;;;;;;43.35;11.36;94369.09;5061027;28;20047;-63
2021/09/17 07:50:21;;;;;;;9.57;5.55;;;;;;;43.19;11.66;94364.31;5076384;28;20060;-68
2021/09/17 07:52:49;;;;;;;7.65;5.75;;;;;;;43.35;11.31;94374.59;5076001;28;20048;-67
2021/09/17 07:55:16;;;;;;;6.53;5.00;;;;;;;43.09;11.50;94371.31;5077124;28;20049;-68
2021/09/17 07:57:44;;;;;;;6.53;4.70;;;;;;;42.90;11.70;94356.53;5076928;28;20044;-68
2021/09/17 08:00:13;;;;;;;8.68;5.13;;;;;;;42.46;12.21;94355.88;5077149;28;20048;-69
2021/09/17 08:02:44;;;;;;;7.90;5.32;;;;;;;42.21;12.20;94350.53;5046282;28;20368;-68
2021/09/17 08:05:12;;;;;;;12.07;5.57;;;;;;;41.75;12.91;94346.00;5076900;28;20075;-67
2021/09/17 08:07:39;;;;;;;9.23;5.72;;;;;;;41.66;12.57;94327.00;5059698;28;20056;-51
2021/09/17 08:10:07;;;;;;;8.73;5.72;;;;;;;42.01;12.73;94335.66;5056804;28;20044;-52
2021/09/17 08:12:34;;;;;;;6.82;5.00;;;;;;;41.89;12.37;94328.59;5055611;28;20059;-52
2021/09/17 08:15:02;;;;;;;8.73;5.00;;;;;;;41.96;12.65;94322.69;5056923;28;20360;-53
2021/09/17 08:17:29;;;;;;;12.32;5.28;;;;;;;42.01;12.99;94313.72;5056622;28;20068;-52
2021/09/17 08:19:56;;;;;;;10.40;4.97;;;;;;;41.97;12.37;94309.69;5076645;28;20048;-55
2021/09/17 08:22:24;;;;;;;11.80;5.25;;;;;;;42.28;12.36;94314.34;5076583;28;20040;-52
2021/09/17 08:24:51;;;;;;;7.93;5.50;;;;;;;42.13;12.43;94320.78;5076757;28;20044;-54
2021/09/17 08:27:18;;;;;;;6.35;4.85;;;;;;;42.22;12.16;94313.59;5076476;28;20044;-68
2021/09/17 08:29:45;;;;;;;8.45;5.07;;;;;;;42.00;12.49;94317.69;5076040;28;20588;-65
2021/09/17 08:32:33;;;;;;;9.60;5.05;;;;;;;42.21;12.41;94314.81;5044997;28;20044;-54
2021/09/17 08:35:20;;;;;;;10.95;5.22;;;;;;;42.29;12.30;94300.13;5075226;28;20056;-55
2021/09/17 08:38:07;;;;;;;7.80;4.90;;;;;;;42.15;12.45;94307.28;5038985;28;20052;-54
2021/09/17 08:40:34;;;;;;;8.73;5.35;;;;;;;42.55;12.36;94315.72;5055756;28;20059;-54
2021/09/17 08:43:01;;;;;;;6.63;5.28;;;;;;;42.10;12.63;94316.25;5056219;28;20056;-55
2021/09/17 08:45:30;;;;;;;8.23;5.43;;;;;;;42.41;12.39;94306.38;5055289;28;20056;-55
2021/09/17 08:48:00;;;;;;;8.13;4.88;;;;;;;42.47;12.04;94312.69;5059530;28;20053;-56
2021/09/17 08:50:30;;;;;;;6.38;4.70;;;;;;;42.61;11.89;94313.72;5075996;28;20040;-53
2021/09/17 08:52:57;;;;;;;10.35;5.63;;;;;;;42.63;12.48;94311.97;5073827;28;20048;-55
2021/09/17 08:55:25;;;;;;;7.63;4.82;;;;;;;42.24;12.24;94303.59;5055047;28;20052;-53
2021/09/17 08:57:52;;;;;;;10.02;5.32;;;;;;;42.35;11.96;94302.88;5054479;28;20483;-53
2021/09/17 09:00:30;;;;;;;10.43;5.47;;;;;;;42.48;12.44;94306.72;5055809;28;20044;-53
2021/09/17 09:02:59;;;;;;;10.43;5.88;;;;;;;42.90;12.28;94299.56;5071694;28;20048;-67
2021/09/17 09:05:34;;;;;;;7.88;5.38;;;;;;;42.92;12.42;94301.78;5075673;28;20052;-60
2021/09/17 09:08:03;;;;;;;9.25;5.22;;;;;;;42.85;12.22;94294.78;5057658;28;20475;-62
2021/09/17 09:10:30;;;;;;;8.32;5.40;;;;;;;42.95;11.94;94292.56;5055636;28;20447;-68
2021/09/17 09:13:01;;;;;;;9.68;5.18;;;;;;;42.84;11.89;94287.78;5055511;28;20428;-67
2021/09/17 09:15:30;;;;;;;10.02;5.30;;;;;;;43.36;12.39;94279.81;5037248;28;20053;-62
2021/09/17 09:18:01;;;;;;;19.45;6.15;;;;;;;43.13;11.90;94278.31;5059975;28;20059;-66
2021/09/17 09:20:28;;;;;;;16.55;4.90;;;;;;;42.81;12.04;94277.78;5073994;28;20040;-68
2021/09/17 09:23:24;;;;;;;19.17;5.25;;;;;;;43.11;11.66;94275.31;5057556;28;20044;-64
2021/09/17 09:26:00;;;;;;;14.77;5.43;;;;;;;43.21;11.78;94276.59;5075511;28;20467;-65
2021/09/17 09:28:39;;;;;;;9.50;4.50;;;;;;;43.31;11.83;94266.84;5074009;28;20044;-63
2021/09/17 09:31:08;;;;;;;16.98;4.85;;;;;;;43.39;11.47;94273.31;5074336;28;20063;-55
2021/09/17 09:33:36;;;;;;;14.25;5.00;;;;;;;43.02;11.82;94281.06;5075010;28;20052;-67
2021/09/17 09:36:18;;;;;;;14.65;5.28;;;;;;;42.56;12.07;94268.50;5074396;28;20521;-52
2021/09/17 09:39:04;;;;;;;16.63;5.07;;;;;;;42.53;12.13;94260.50;5055227;28;20081;-54
2021/09/17 09:41:34;;;;;;;14.85;5.10;;;;;;;42.57;11.85;94264.50;5054829;28;20053;-58
2021/09/17 09:44:15;;;;;;;14.40;5.43;;;;;;;42.22;12.25;94255.91;5055198;28;20470;-54
2021/09/17 09:46:44;;;;;;;12.18;4.93;;;;;;;42.29;12.25;94266.41;5053821;28;20361;-53
2021/09/17 09:49:14;;;;;;;15.27;5.85;;;;;;;42.11;12.41;94251.88;5068951;28;20047;-54
2021/09/17 09:51:52;;;;;;;14.48;4.90;;;;;;;41.85;12.39;94248.50;5072738;28;20048;-53
2021/09/17 09:54:21;;;;;;;16.15;5.63;;;;;;;42.24;12.19;94245.94;5062134;28;20048;-54
2021/09/17 09:56:50;;;;;;;14.43;5.18;;;;;;;41.86;12.11;94230.78;5074565;28;20048;-54
2021/09/17 09:59:20;;;;;;;23.20;6.15;;;;;;;42.47;11.76;94233.03;5074692;28;20044;-54
2021/09/17 10:01:47;;;;;;;14.57;5.53;;;;;;;42.47;11.51;94239.28;5057053;28;20041;-55
2021/09/17 10:04:16;;;;;;;15.05;5.30;;;;;;;42.57;11.36;94231.53;5074029;28;20383;-53
2021/09/17 10:06:44;;;;;;;15.70;5.38;;;;;;;42.60;11.68;94241.53;5039695;28;20044;-53
2021/09/17 10:09:12;;;;;;;22.42;5.15;;;;;;;42.71;11.18;94238.81;5036518;28;20440;-54
2021/09/17 10:11:40;;;;;;;11.93;4.60;;;;;;;42.54;11.80;94224.31;5053583;28;20055;-53
2021/09/17 10:14:10;;;;;;;16.65;5.05;;;;;;;42.70;11.91;94218.06;5054825;28;20367;-54
2021/09/17 10:16:38;;;;;;;16.02;5.60;;;;;;;42.57;11.75;94226.06;5053554;28;20063;-53
2021/09/17 10:19:05;;;;;;;16.35;5.60;;;;;;;42.64;11.66;94231.03;5067510;28;20051;-54
2021/09/17 10:21:51;;;;;;;20.13;5.53;;;;;;;42.26;12.19;94215.25;5074329;28;20054;-54
2021/09/17 10:24:26;;;;;;;13.98;5.32;;;;;;;42.24;12.20;94225.97;5073573;28;20055;-53
2021/09/17 10:27:00;;;;;;;15.63;4.95;;;;;;;42.03;12.28;94226.13;5074377;28;20090;-54
2021/09/17 10:29:43;;;;;;;12.35;4.95;;;;;;;41.81;12.33;94218.56;5058433;28;20048;-52
2021/09/17 10:32:31;;;;;;;15.52;4.85;;;;;;;41.99;12.49;94222.13;5052954;28;20052;-52
2021/09/17 10:35:04;;;;;;;15.23;4.88;;;;;;;41.93;11.98;94213.13;5053087;28;20053;-52
2021/09/17 10:37:53;;;;;;;16.63;5.47;;;;;;;41.64;12.55;94208.72;5053455;28;20057;-54
2021/09/17 10:40:38;;;;;;;14.98;4.22;;;;;;;41.70;12.20;94210.28;5054284;28;20053;-55
2021/09/17 10:43:10;;;;;;;15.07;5.40;;;;;;;42.23;12.22;94197.75;5052432;28;20045;-54
2021/09/17 10:45:39;;;;;;;15.68;4.25;;;;;;;42.62;12.09;94184.09;5054078;28;20041;-54
2021/09/17 10:48:07;;;;;;;16.40;5.07;;;;;;;42.98;11.92;94181.63;5055749;28;20044;-53
2021/09/17 10:50:43;;;;;;;16.75;5.30;;;;;;;42.78;12.37;94177.84;5053989;28;20059;-57
2021/09/17 10:53:11;;;;;;;16.50;4.88;;;;;;;42.66;12.51;94183.84;5053947;28;20447;-55
2021/09/17 10:55:56;;;;;;;18.42;5.68;;;;;;;42.53;11.76;94172.59;5054061;28;20048;-54
2021/09/17 10:58:26;;;;;;;14.50;5.03;;;;;;;42.99;11.58;94158.38;5054093;28;20033;-54
2021/09/17 11:01:02;;;;;;;12.30;4.57;;;;;;;42.77;11.49;94162.63;5054106;28;20491;-53
2021/09/17 11:03:36;;;;;;;17.10;5.15;;;;;;;42.92;11.79;94162.34;5063235;28;20052;-55
2021/09/17 11:06:22;;;;;;;15.50;5.28;;;;;;;42.28;12.14;94163.31;5072897;28;20048;-56
2021/09/17 11:09:06;;;;;;;15.63;5.18;;;;;;;42.56;11.98;94158.63;5074200;28;20040;-54
2021/09/17 11:11:34;;;;;;;13.43;4.97;;;;;;;42.50;11.79;94149.63;5073329;28;20059;-54
2021/09/17 11:14:05;;;;;;;15.18;5.20;;;;;;;42.50;11.88;94146.88;5073921;28;20048;-54
2021/09/17 11:16:32;;;;;;;17.42;5.38;;;;;;;42.67;11.86;94144.88;5074494;28;20049;-57
2021/09/17 11:19:06;;;;;;;15.00;5.07;;;;;;;42.50;12.27;94138.66;5076045;28;20048;-53
2021/09/17 11:21:39;;;;;;;17.98;4.80;;;;;;;42.45;11.99;94131.88;5077959;28;20051;-56
2021/09/17 11:24:19;;;;;;;18.25;5.15;;;;;;;42.21;12.05;94128.88;5065933;28;20368;-53
2021/09/17 11:26:48;;;;;;;20.48;4.90;;;;;;;42.46;11.88;94124.38;5057559;28;20079;-54
2021/09/17 11:29:18;;;;;;;15.57;5.27;;;;;;;42.26;12.45;94127.38;5057658;28;20056;-55
2021/09/17 11:31:53;;;;;;;17.90;4.90;;;;;;;41.91;12.71;94134.03;5057753;28;20605;-56
2021/09/17 11:34:23;;;;;;;14.05;4.65;;;;;;;41.88;12.44;94149.47;5049752;28;20068;-55
2021/09/17 11:36:54;;;;;;;20.00;5.65;;;;;;;41.83;13.31;94146.72;5036989;28;20045;-54